Time;durP1;ratioP1;P1;durP2;ratioP2;P2;SDS_P1;SDS_P2;PMS_P1;PMS_P2;Temp;Humidity;BMP_temperature;BMP_pressure;BME280_temperature;BME280_humidity;BME280_pressure;Samples;Min_cycle;Max_cycle;Signal;HPM_P1;HPM_P2
2022/04/18 00:01:13;;;;;;;0.22;0.22;;;8.00;75.00;;;;;;5097032;28;20048;-80
2022/04/18 00:03:39;;;;;;;0.65;0.35;;;7.90;74.60;;;;;;5113614;28;20483;-80
2022/04/18 00:06:04;;;;;;;1.25;1.15;;;7.90;76.00;;;;;;5113375;28;20487;-80
2022/04/18 00:08:30;;;;;;;0.00;0.00;;;7.90;76.50;;;;;;5096611;28;20447;-80
2022/04/18 00:10:55;;;;;;;0.10;0.10;;;7.80;74.60;;;;;;5112954;28;20544;-80
2022/04/18 00:13:21;;;;;;;0.85;0.10;;;7.80;74.10;;;;;;5096658;28;20051;-80
2022/04/18 00:15:47;;;;;;;0.63;0.63;;;7.80;75.60;;;;;;5096253;28;20044;-80
2022/04/18 00:18:12;;;;;;;5.60;0.20;;;7.90;74.80;;;;;;5113480;28;20081;-80
2022/04/18 00:20:38;;;;;;;0.40;0.40;;;7.80;77.10;;;;;;5113487;28;20136;-80
2022/04/18 00:23:04;;;;;;;0.17;0.17;;;7.80;76.20;;;;;;5113382;28;20479;-80
2022/04/18 00:25:30;;;;;;;0.00;0.00;;;7.80;76.80;;;;;;5096356;28;20054;-80
2022/04/18 00:27:55;;;;;;;2.38;1.08;;;7.70;77.30;;;;;;5113370;28;20048;-80
2022/04/18 00:30:21;;;;;;;0.00;0.00;;;7.70;76.00;;;;;;5113343;28;20035;-80
2022/04/18 00:32:47;;;;;;;0.65;0.25;;;7.70;76.90;;;;;;5095920;28;20047;-80
2022/04/18 00:35:12;;;;;;;0.70;0.25;;;7.70;76.40;;;;;;5112847;28;20048;-80
2022/04/18 00:37:40;;;;;;;2.17;0.63;;;7.70;76.30;;;;;;5113395;28;20071;-80
2022/04/18 00:40:08;;;;;;;0.77;0.25;;;7.60;75.90;;;;;;5096233;28;20407;-80
2022/04/18 00:42:34;;;;;;;0.00;0.00;;;7.60;76.20;;;;;;5096893;28;20046;-80
2022/04/18 00:45:01;;;;;;;0.57;0.22;;;7.60;76.70;;;;;;5095897;28;20051;-80
2022/04/18 00:47:26;;;;;;;0.40;0.40;;;7.60;77.10;;;;;;5113156;28;20047;-80
2022/04/18 00:49:52;;;;;;;0.43;0.43;;;7.60;77.30;;;;;;5096257;28;20052;-80
2022/04/18 00:52:19;;;;;;;5.00;0.20;;;7.60;77.60;;;;;;5112956;28;20035;-80
2022/04/18 00:54:46;;;;;;;1.77;0.85;;;7.60;76.80;;;;;;5112972;28;20051;-80
2022/04/18 00:57:12;;;;;;;1.45;0.75;;;7.60;77.80;;;;;;5112922;28;20467;-80
2022/04/18 00:59:38;;;;;;;9.38;1.13;;;7.50;77.40;;;;;;5096288;28;20142;-80
2022/04/18 01:02:05;;;;;;;0.10;0.10;;;7.50;80.10;;;;;;5095837;28;20509;-80
2022/04/18 01:04:31;;;;;;;1.85;0.57;;;7.40;78.70;;;;;;5095906;28;20048;-80
2022/04/18 01:06:59;;;;;;;0.57;0.50;;;7.50;77.20;;;;;;5112574;28;20040;-80
2022/04/18 01:09:24;;;;;;;1.65;0.80;;;7.50;78.10;;;;;;5095878;28;20054;-80
2022/04/18 01:11:50;;;;;;;0.73;0.30;;;7.40;78.10;;;;;;5096205;28;20142;-80
2022/04/18 01:14:16;;;;;;;0.25;0.25;;;7.40;78.50;;;;;;5096347;28;20121;-80
2022/04/18 01:16:42;;;;;;;0.10;0.08;;;7.30;79.50;;;;;;5113394;28;20086;-80
2022/04/18 01:19:09;;;;;;;1.45;1.00;;;7.30;79.80;;;;;;5112932;28;20046;-80
2022/04/18 01:21:35;;;;;;;4.68;1.08;;;7.20;79.80;;;;;;5112905;28;20051;-80
2022/04/18 01:28:58;;;;;;;1.65;1.13;;;7.20;80.30;;;;;;5116834;28;20036;-80
2022/04/18 01:29:32;;;;;;;6.22;0.57;;;7.20;79.00;;;;;;5116814;28;20043;-80
2022/04/18 01:31:57;;;;;;;0.85;0.75;;;7.20;78.90;;;;;;5116766;28;20130;-80
2022/04/18 01:34:23;;;;;;;0.68;0.68;;;7.10;80.90;;;;;;5116737;28;20079;-80
2022/04/18 01:36:48;;;;;;;0.60;0.57;;;7.10;80.80;;;;;;5099706;28;20094;-80
2022/04/18 01:39:14;;;;;;;0.10;0.10;;;7.00;80.20;;;;;;5116885;28;20050;-80
2022/04/18 01:41:40;;;;;;;0.20;0.20;;;7.00;80.90;;;;;;5116134;28;20506;-80
2022/04/18 01:44:06;;;;;;;0.50;0.10;;;6.90;80.50;;;;;;5099525;28;20051;-80
2022/04/18 01:46:32;;;;;;;0.28;0.20;;;6.90;79.50;;;;;;5116204;28;20058;-81
2022/04/18 01:48:57;;;;;;;0.82;0.40;;;6.90;81.70;;;;;;5116480;28;20055;-80
2022/04/18 01:51:23;;;;;;;0.08;0.08;;;6.90;80.80;;;;;;5100231;28;20055;-80
2022/04/18 01:53:49;;;;;;;2.97;0.10;;;6.90;82.20;;;;;;5116448;28;20130;-80
2022/04/18 01:56:15;;;;;;;0.00;0.00;;;6.90;82.60;;;;;;5116419;28;20047;-80
2022/04/18 01:58:41;;;;;;;1.65;1.00;;;6.90;80.90;;;;;;5099309;28;20425;-80
2022/04/18 02:01:07;;;;;;;0.15;0.10;;;6.90;81.70;;;;;;5099148;28;20111;-80
2022/04/18 02:03:33;;;;;;;0.00;0.00;;;6.80;80.10;;;;;;5116211;28;20375;-80
2022/04/18 02:05:59;;;;;;;3.20;0.20;;;6.80;81.20;;;;;;5098819;28;20585;-80
2022/04/18 02:08:26;;;;;;;0.57;0.57;;;6.80;79.80;;;;;;5116157;28;20044;-80
2022/04/18 02:10:52;;;;;;;0.28;0.28;;;6.80;80.50;;;;;;5099100;28;20101;-80
2022/04/18 02:13:18;;;;;;;0.75;0.47;;;6.70;80.00;;;;;;5099064;28;20040;-80
2022/04/18 02:15:44;;;;;;;0.20;0.20;;;6.80;81.10;;;;;;5098737;28;20124;-81
2022/04/18 02:18:10;;;;;;;0.28;0.28;;;6.70;81.50;;;;;;5098639;28;20040;-80
2022/04/18 02:20:35;;;;;;;0.10;0.10;;;6.70;80.80;;;;;;5115906;28;20097;-80
2022/04/18 02:23:01;;;;;;;2.35;0.80;;;6.70;80.80;;;;;;5115957;28;20516;-80
2022/04/18 02:25:27;;;;;;;0.00;0.00;;;6.80;82.60;;;;;;5116067;28;20104;-80
2022/04/18 02:27:52;;;;;;;6.63;0.10;;;6.70;80.50;;;;;;5115871;28;20474;-81
2022/04/18 02:30:18;;;;;;;0.50;0.50;;;6.70;80.90;;;;;;5098903;28;20487;-80
2022/04/18 02:32:47;;;;;;;0.35;0.32;;;6.70;81.10;;;;;;5115549;28;20062;-81
2022/04/18 02:35:13;;;;;;;0.65;0.63;;;6.70;81.40;;;;;;5097981;28;20051;-80
2022/04/18 02:37:39;;;;;;;1.65;0.65;;;6.70;82.60;;;;;;5098192;28;20040;-80
2022/04/18 02:40:06;;;;;;;1.20;0.90;;;6.60;82.10;;;;;;5115522;28;20095;-80
2022/04/18 02:42:31;;;;;;;0.20;0.20;;;6.50;82.50;;;;;;5115552;28;20039;-80
2022/04/18 02:44:57;;;;;;;0.82;0.35;;;6.50;82.30;;;;;;5098363;28;20044;-80
2022/04/18 02:47:23;;;;;;;0.22;0.10;;;6.50;82.70;;;;;;5115345;28;20054;-81
2022/04/18 02:49:50;;;;;;;15.35;1.05;;;6.50;82.70;;;;;;5115355;28;20096;-80
2022/04/18 02:52:17;;;;;;;0.10;0.10;;;6.50;83.60;;;;;;5098629;28;20550;-80
2022/04/18 02:54:44;;;;;;;0.10;0.10;;;6.40;83.70;;;;;;5115219;28;20050;-80
2022/04/18 02:57:13;;;;;;;0.55;0.32;;;6.40;83.60;;;;;;5115148;28;20044;-81
2022/04/18 02:59:39;;;;;;;0.10;0.10;;;6.40;83.30;;;;;;5098324;28;20047;-80
2022/04/18 03:02:05;;;;;;;0.45;0.45;;;6.30;84.70;;;;;;5115454;28;20445;-80
2022/04/18 03:04:31;;;;;;;0.25;0.25;;;6.30;84.00;;;;;;5115205;28;20046;-81
2022/04/18 03:06:56;;;;;;;4.18;0.73;;;6.40;84.00;;;;;;5114673;28;20585;-80
2022/04/18 03:09:22;;;;;;;0.45;0.30;;;6.20;83.20;;;;;;5097929;28;20395;-81
2022/04/18 03:11:48;;;;;;;0.52;0.28;;;6.20;84.00;;;;;;5098055;28;20055;-80
2022/04/18 03:14:14;;;;;;;0.10;0.10;;;6.10;86.50;;;;;;5097505;28;20039;-80
2022/04/18 03:16:39;;;;;;;1.20;0.57;;;6.10;87.10;;;;;;5114862;28;20711;-80
2022/04/18 03:19:05;;;;;;;0.10;0.10;;;6.00;87.00;;;;;;5115396;28;20043;-80
2022/04/18 03:21:31;;;;;;;0.08;0.05;;;6.00;86.80;;;;;;5114378;28;20394;-81
2022/04/18 03:23:56;;;;;;;0.50;0.50;;;5.90;87.60;;;;;;5097693;28;20055;-80
2022/04/18 03:26:22;;;;;;;0.10;0.10;;;5.90;87.40;;;;;;5097232;28;20611;-81
2022/04/18 03:28:47;;;;;;;0.10;0.10;;;5.90;87.90;;;;;;5096204;28;20044;-80
2022/04/18 03:31:13;;;;;;;0.50;0.50;;;5.80;89.90;;;;;;5112099;28;20479;-80
2022/04/18 03:33:39;;;;;;;7.53;2.30;;;5.80;89.00;;;;;;5114260;28;20043;-81
2022/04/18 03:41:32;;;;;;;0.82;0.43;;;5.80;87.70;;;;;;5114101;28;20146;-81
2022/04/18 03:43:58;;;;;;;1.65;0.30;;;5.80;88.80;;;;;;5114291;28;20050;-81
2022/04/18 03:46:24;;;;;;;2.50;1.55;;;5.70;88.50;;;;;;5096311;28;20051;-81
2022/04/18 03:48:50;;;;;;;0.30;0.20;;;5.70;89.20;;;;;;5114163;28;20047;-81
2022/04/18 03:51:15;;;;;;;0.20;0.17;;;5.70;88.30;;;;;;5097348;28;20506;-80
2022/04/18 03:53:41;;;;;;;0.38;0.38;;;5.70;90.20;;;;;;5113936;28;20498;-80
2022/04/18 03:56:07;;;;;;;0.73;0.20;;;5.70;89.90;;;;;;5114001;28;20047;-81
2022/04/18 03:58:32;;;;;;;0.30;0.30;;;5.60;89.20;;;;;;5114276;28;20039;-80
2022/04/18 04:00:58;;;;;;;1.00;0.68;;;5.60;90.30;;;;;;5097561;28;20135;-81
2022/04/18 04:03:26;;;;;;;1.00;0.68;;;5.60;91.10;;;;;;5114114;28;20540;-81
2022/04/18 04:05:53;;;;;;;2.05;0.77;;;5.50;91.20;;;;;;5096886;28;20051;-80
2022/04/18 04:08:22;;;;;;;0.47;0.45;;;5.50;90.80;;;;;;5096964;28;20094;-81
2022/04/18 04:10:51;;;;;;;0.17;0.10;;;5.50;90.80;;;;;;5096539;28;20040;-81
2022/04/18 04:13:17;;;;;;;0.35;0.10;;;5.50;91.10;;;;;;5113828;28;20054;-81
2022/04/18 04:15:44;;;;;;;0.20;0.20;;;5.40;91.20;;;;;;5113478;28;20052;-81
2022/04/18 04:18:09;;;;;;;0.52;0.52;;;5.50;90.90;;;;;;5112880;28;20059;-81
2022/04/18 04:20:35;;;;;;;4.47;0.65;;;5.50;91.40;;;;;;5113224;28;20043;-81
2022/04/18 04:23:01;;;;;;;0.13;0.13;;;5.50;91.20;;;;;;5113200;28;20048;-81
2022/04/18 04:25:26;;;;;;;0.30;0.30;;;5.50;91.50;;;;;;5113040;28;20043;-80
2022/04/18 04:27:52;;;;;;;0.68;0.38;;;5.40;91.60;;;;;;5113381;28;20042;-80
2022/04/18 04:30:18;;;;;;;0.10;0.10;;;5.50;91.80;;;;;;5113699;28;20043;-81
2022/04/18 04:32:43;;;;;;;2.45;0.77;;;5.40;91.90;;;;;;5113121;28;20096;-80
2022/04/18 04:35:09;;;;;;;0.20;0.20;;;5.40;91.50;;;;;;5113432;28;20052;-80
2022/04/18 04:37:35;;;;;;;0.10;0.08;;;5.40;92.40;;;;;;5113318;28;20044;-81
2022/04/18 04:40:01;;;;;;;0.45;0.38;;;5.40;92.80;;;;;;5112690;28;20119;-81
2022/04/18 04:42:26;;;;;;;0.47;0.47;;;5.40;93.00;;;;;;5096388;28;20095;-80
2022/04/18 04:44:52;;;;;;;0.30;0.30;;;5.40;92.20;;;;;;5096446;28;20062;-81
2022/04/18 04:47:18;;;;;;;1.08;0.25;;;5.40;92.00;;;;;;5095821;28;20402;-80
2022/04/18 04:49:43;;;;;;;0.10;0.10;;;5.40;92.50;;;;;;5095740;28;20047;-81
2022/04/18 04:52:09;;;;;;;1.15;0.40;;;5.50;92.40;;;;;;5096210;28;20059;-80
2022/04/18 04:54:35;;;;;;;0.22;0.22;;;5.50;92.60;;;;;;5112793;28;20360;-81
2022/04/18 04:57:01;;;;;;;0.65;0.32;;;5.50;92.60;;;;;;5112830;28;20105;-80
2022/04/18 04:59:26;;;;;;;0.85;0.20;;;5.40;93.50;;;;;;5096114;28;20043;-80
2022/04/18 05:01:52;;;;;;;0.32;0.20;;;5.40;93.00;;;;;;5113166;28;20090;-81
2022/04/18 05:04:18;;;;;;;0.65;0.08;;;5.40;94.00;;;;;;5112847;28;20032;-81
2022/04/18 05:06:44;;;;;;;0.28;0.22;;;5.40;94.50;;;;;;5112889;28;20130;-80
2022/04/18 05:09:10;;;;;;;1.85;0.63;;;5.40;94.30;;;;;;5113396;28;20435;-80
2022/04/18 05:11:36;;;;;;;0.20;0.10;;;5.40;94.00;;;;;;5112687;28;20193;-80
2022/04/18 05:14:02;;;;;;;0.52;0.30;;;5.50;95.10;;;;;;5095698;28;20127;-80
2022/04/18 05:16:28;;;;;;;0.17;0.17;;;5.40;94.80;;;;;;5112506;28;20126;-81
2022/04/18 05:18:53;;;;;;;1.55;0.30;;;5.50;94.30;;;;;;5096155;28;20051;-80
2022/04/18 05:21:19;;;;;;;0.30;0.10;;;5.50;94.20;;;;;;5112379;28;20487;-80
2022/04/18 05:23:45;;;;;;;0.45;0.35;;;5.60;94.50;;;;;;5095854;28;20096;-81
2022/04/18 05:26:10;;;;;;;0.08;0.00;;;5.60;94.30;;;;;;5112918;28;20047;-81
2022/04/18 05:28:36;;;;;;;0.20;0.15;;;5.60;94.80;;;;;;5096123;28;20487;-80
2022/04/18 05:31:02;;;;;;;0.00;0.00;;;5.70;95.20;;;;;;5112799;28;20040;-81
2022/04/18 05:33:28;;;;;;;1.27;0.75;;;5.70;94.20;;;;;;5095976;28;20403;-81
2022/04/18 05:35:54;;;;;;;2.40;0.10;;;5.80;94.00;;;;;;5095988;28;20506;-81
2022/04/18 05:38:19;;;;;;;1.20;0.68;;;5.90;94.50;;;;;;5113223;28;20479;-81
2022/04/18 05:40:45;;;;;;;6.57;0.40;;;6.00;94.70;;;;;;5095510;28;20052;-81
2022/04/18 05:43:11;;;;;;;0.00;0.00;;;6.00;94.30;;;;;;5112972;28;20044;-81
2022/04/18 05:45:38;;;;;;;0.60;0.05;;;6.10;93.60;;;;;;5095216;28;20095;-81
2022/04/18 05:48:04;;;;;;;0.63;0.63;;;6.20;94.50;;;;;;5096084;28;20051;-81
2022/04/18 05:50:30;;;;;;;0.38;0.10;;;6.20;93.40;;;;;;5095263;28;20090;-81
2022/04/18 05:52:55;;;;;;;2.47;1.15;;;6.40;93.50;;;;;;5112093;28;20071;-81
2022/04/18 05:55:21;;;;;;;0.50;0.20;;;6.40;93.40;;;;;;5113242;28;20047;-81
2022/04/18 05:57:48;;;;;;;0.17;0.17;;;6.50;92.60;;;;;;5095296;28;20502;-81
2022/04/18 06:00:15;;;;;;;0.20;0.00;;;6.60;93.00;;;;;;5112687;28;20050;-81
2022/04/18 06:02:40;;;;;;;3.00;1.17;;;6.60;92.80;;;;;;5112474;28;20072;-81
2022/04/18 06:05:06;;;;;;;0.93;0.30;;;6.70;93.30;;;;;;5112415;28;20043;-80
2022/04/18 06:07:34;;;;;;;1.30;0.60;;;7.00;92.90;;;;;;5112038;28;20047;-81
2022/04/18 06:10:00;;;;;;;0.98;0.98;;;7.30;92.00;;;;;;5098341;28;20043;-80
2022/04/18 06:12:26;;;;;;;1.52;1.10;;;7.60;92.00;;;;;;5098949;28;20070;-80
2022/04/18 06:14:52;;;;;;;0.55;0.43;;;7.80;91.20;;;;;;5115914;28;20047;-80
2022/04/18 06:17:18;;;;;;;0.38;0.32;;;7.90;91.00;;;;;;5116018;28;20059;-81
2022/04/18 06:19:43;;;;;;;1.77;0.80;;;7.90;90.10;;;;;;5115781;28;20129;-80
2022/04/18 06:22:09;;;;;;;0.20;0.20;;;8.10;90.50;;;;;;5115839;28;20044;-81
2022/04/18 06:24:35;;;;;;;0.13;0.13;;;8.40;90.60;;;;;;5115816;28;20088;-80
2022/04/18 06:27:00;;;;;;;2.33;0.65;;;8.90;90.50;;;;;;5098438;28;20100;-80
2022/04/18 06:29:26;;;;;;;0.52;0.25;;;9.20;89.70;;;;;;5115869;28;20039;-80
2022/04/18 06:31:55;;;;;;;3.63;2.35;;;9.40;85.30;;;;;;5115641;28;20487;-80
2022/04/18 06:34:21;;;;;;;0.35;0.20;;;9.40;84.90;;;;;;5115565;28;20089;-80
2022/04/18 06:36:46;;;;;;;0.40;0.32;;;9.50;84.10;;;;;;5098582;28;20083;-81
2022/04/18 06:39:12;;;;;;;0.32;0.32;;;9.70;85.20;;;;;;5114664;28;20052;-80
2022/04/18 06:41:38;;;;;;;0.47;0.20;;;10.30;83.50;;;;;;5115165;28;20035;-80
2022/04/18 06:44:04;;;;;;;0.00;0.00;;;10.90;82.30;;;;;;5098651;28;20052;-80
2022/04/18 06:46:29;;;;;;;10.68;2.10;;;11.30;81.40;;;;;;5114978;28;20376;-81
2022/04/18 06:48:55;;;;;;;0.20;0.13;;;11.60;75.90;;;;;;5098289;28;20052;-80
2022/04/18 06:51:21;;;;;;;0.73;0.63;;;12.50;79.10;;;;;;5114067;28;20150;-80
2022/04/18 06:53:47;;;;;;;1.38;0.70;;;13.40;75.20;;;;;;5096746;28;20051;-79
2022/04/18 06:58:57;;;;;;;0.15;0.15;;;15.30;66.90;;;;;;5115974;28;20448;-80
2022/04/18 07:01:22;;;;;;;1.10;0.40;;;16.10;63.70;;;;;;5114758;28;20096;-79
2022/04/18 07:03:48;;;;;;;3.30;0.57;;;16.60;59.80;;;;;;5115557;28;20040;-80
2022/04/18 07:06:14;;;;;;;0.35;0.35;;;17.00;58.30;;;;;;5097946;28;20052;-80
2022/04/18 07:08:39;;;;;;;0.20;0.20;;;17.30;56.40;;;;;;5115202;28;20092;-80
2022/04/18 07:11:05;;;;;;;0.00;0.00;;;17.70;56.60;;;;;;5098088;28;20381;-80
2022/04/18 07:13:31;;;;;;;0.98;0.35;;;18.20;57.20;;;;;;5114953;28;20031;-80
2022/04/18 07:15:56;;;;;;;0.40;0.20;;;18.40;55.00;;;;;;5114684;28;20130;-80
2022/04/18 07:18:22;;;;;;;0.50;0.50;;;17.70;52.20;;;;;;5114898;28;20047;-80
2022/04/18 07:20:48;;;;;;;0.00;0.00;;;17.10;53.30;;;;;;5097766;28;20407;-80
2022/04/18 07:23:14;;;;;;;1.42;1.00;;;16.90;54.30;;;;;;5114988;28;20039;-80
2022/04/18 07:25:40;;;;;;;0.63;0.63;;;17.00;53.50;;;;;;5114567;28;20115;-80
2022/04/18 07:28:06;;;;;;;1.10;0.50;;;17.50;54.20;;;;;;5097712;28;20082;-80
2022/04/18 07:30:32;;;;;;;3.10;0.80;;;17.70;54.60;;;;;;5114528;28;20040;-80
2022/04/18 07:32:58;;;;;;;0.40;0.20;;;18.40;54.80;;;;;;5097499;28;20116;-80
2022/04/18 07:35:24;;;;;;;0.57;0.30;;;18.90;53.50;;;;;;5114373;28;20130;-80
2022/04/18 07:40:33;;;;;;;0.63;0.63;;;19.20;51.20;;;;;;5114224;28;20507;-80
2022/04/18 07:42:59;;;;;;;0.40;0.38;;;19.00;50.80;;;;;;5097514;28;20142;-80
2022/04/18 07:45:25;;;;;;;0.30;0.20;;;18.60;51.60;;;;;;5113756;28;20134;-80
2022/04/18 07:47:52;;;;;;;0.22;0.22;;;18.00;50.90;;;;;;5114235;28;20044;-80
2022/04/18 07:50:18;;;;;;;0.68;0.38;;;17.50;52.60;;;;;;5114343;28;20055;-80
2022/04/18 07:52:44;;;;;;;2.75;0.10;;;17.20;54.70;;;;;;5097411;28;20521;-80
2022/04/18 07:55:10;;;;;;;0.25;0.22;;;17.20;52.60;;;;;;5097368;28;20051;-80
2022/04/18 07:57:37;;;;;;;2.20;0.93;;;16.90;52.10;;;;;;5097062;28;20482;-80
2022/04/18 08:00:06;;;;;;;1.65;0.15;;;16.80;53.80;;;;;;5113966;28;20096;-80
2022/04/18 08:02:33;;;;;;;0.10;0.00;;;17.10;54.70;;;;;;5114135;28;20099;-81
2022/04/18 08:04:59;;;;;;;0.17;0.17;;;16.90;52.20;;;;;;5113838;28;20530;-80
2022/04/18 08:07:25;;;;;;;0.30;0.30;;;16.60;52.10;;;;;;5097015;28;20185;-80
2022/04/18 08:09:50;;;;;;;0.90;0.35;;;17.00;53.00;;;;;;5113900;28;20047;-80
2022/04/18 08:12:16;;;;;;;0.00;0.00;;;17.00;51.90;;;;;;5113775;28;20244;-80
2022/04/18 08:14:42;;;;;;;0.10;0.10;;;16.90;53.80;;;;;;5097008;28;20055;-80
2022/04/18 08:17:08;;;;;;;0.52;0.10;;;17.10;51.50;;;;;;5113645;28;20070;-80
2022/04/18 08:19:35;;;;;;;2.40;0.00;;;16.80;50.60;;;;;;5113608;28;20051;-80
2022/04/18 08:22:02;;;;;;;0.10;0.10;;;16.60;52.10;;;;;;5096676;28;20050;-81
2022/04/18 08:24:28;;;;;;;0.10;0.10;;;16.70;52.60;;;;;;5096670;28;20054;-81
2022/04/18 08:26:54;;;;;;;1.90;0.63;;;16.60;52.20;;;;;;5096154;28;20040;-81
2022/04/18 08:29:22;;;;;;;0.20;0.20;;;16.60;53.00;;;;;;5096280;28;20044;-81
2022/04/18 08:31:48;;;;;;;1.23;0.35;;;16.50;50.80;;;;;;5112672;28;20043;-81
2022/04/18 08:34:14;;;;;;;1.65;0.45;;;16.60;52.30;;;;;;5113025;28;20035;-81
2022/04/18 08:36:40;;;;;;;0.20;0.20;;;16.60;51.90;;;;;;5113096;28;20043;-80
2022/04/18 08:39:06;;;;;;;0.25;0.25;;;16.60;53.10;;;;;;5113422;28;20042;-80
2022/04/18 08:41:38;;;;;;;0.00;0.00;;;16.70;52.20;;;;;;5096405;28;20051;-81
2022/04/18 08:44:04;;;;;;;0.00;0.00;;;16.80;51.70;;;;;;5113493;28;20047;-81
2022/04/18 08:46:31;;;;;;;0.25;0.25;;;17.00;53.00;;;;;;5112744;28;20061;-80
2022/04/18 08:54:28;;;;;;;0.28;0.20;;;17.40;52.10;;;;;;5113522;28;20051;-81
2022/04/18 08:56:55;;;;;;;0.00;0.00;;;17.40;51.60;;;;;;5095733;28;20046;-81
2022/04/18 08:59:21;;;;;;;2.72;0.70;;;17.30;51.10;;;;;;5113189;28;20055;-81
2022/04/18 09:01:52;;;;;;;0.82;0.40;;;17.30;52.10;;;;;;5096402;28;20418;-81
2022/04/18 09:04:20;;;;;;;1.08;0.73;;;17.20;52.80;;;;;;5113508;28;20100;-81
2022/04/18 09:06:46;;;;;;;0.20;0.20;;;17.40;50.70;;;;;;5095967;28;20047;-81
2022/04/18 09:09:11;;;;;;;0.47;0.32;;;17.60;51.80;;;;;;5113540;28;20126;-81
2022/04/18 09:11:37;;;;;;;0.30;0.30;;;17.80;52.00;;;;;;5112998;28;20039;-81
2022/04/18 09:14:03;;;;;;;4.68;0.38;;;18.10;52.40;;;;;;5112983;28;20124;-81
2022/04/18 09:16:30;;;;;;;0.10;0.10;;;18.20;51.80;;;;;;5112995;28;20479;-81
2022/04/18 09:19:09;;;;;;;0.55;0.20;;;18.30;50.60;;;;;;5112847;28;20044;-81
2022/04/18 09:21:54;;;;;;;0.00;0.00;;;18.40;53.00;;;;;;5113658;28;20048;-81
2022/04/18 09:24:32;;;;;;;0.65;0.47;;;18.50;50.40;;;;;;5113295;28;20044;-82
2022/04/18 09:27:18;;;;;;;0.10;0.10;;;18.50;51.50;;;;;;5095694;28;20479;-81
2022/04/18 09:29:46;;;;;;;0.00;0.00;;;18.60;47.90;;;;;;5037855;28;20056;-81
2022/04/18 09:32:13;;;;;;;0.35;0.30;;;18.60;48.90;;;;;;5054453;28;20094;-81
2022/04/18 09:34:40;;;;;;;0.20;0.20;;;18.80;49.20;;;;;;5037937;28;20096;-81
2022/04/18 09:37:10;;;;;;;0.00;0.00;;;19.00;48.10;;;;;;5054594;28;20106;-81
2022/04/18 09:39:36;;;;;;;0.20;0.00;;;19.20;51.80;;;;;;5037039;28;20424;-81
2022/04/18 09:42:10;;;;;;;0.28;0.28;;;19.30;48.20;;;;;;5054589;28;20056;-81
2022/04/18 09:44:37;;;;;;;0.73;0.30;;;19.50;45.20;;;;;;5056010;28;20514;-81
2022/04/18 09:47:04;;;;;;;0.00;0.00;;;19.40;45.70;;;;;;5058152;28;20056;-81
2022/04/18 09:49:37;;;;;;;0.52;0.30;;;19.50;47.30;;;;;;5057962;28;20044;-81
2022/04/18 09:52:05;;;;;;;0.00;0.00;;;19.60;46.60;;;;;;5041442;28;20484;-81
2022/04/18 09:54:32;;;;;;;0.10;0.10;;;19.80;47.00;;;;;;5058060;28;20407;-81
2022/04/18 09:57:04;;;;;;;0.10;0.10;;;20.00;48.50;;;;;;5058110;28;20040;-81
2022/04/18 09:59:31;;;;;;;0.00;0.00;;;20.20;46.20;;;;;;5041421;28;20110;-81
2022/04/18 10:01:58;;;;;;;2.58;0.47;;;20.40;46.30;;;;;;5057795;28;20146;-81
2022/04/18 10:04:24;;;;;;;0.00;0.00;;;20.70;47.20;;;;;;5041339;28;20049;-81
2022/04/18 10:06:52;;;;;;;0.10;0.10;;;20.90;46.30;;;;;;5085548;28;20052;-81
2022/04/18 10:09:22;;;;;;;0.30;0.30;;;20.50;43.30;;;;;;5115835;28;20043;-81
2022/04/18 10:11:48;;;;;;;0.00;0.00;;;20.40;43.50;;;;;;5116688;28;20054;-81
2022/04/18 10:14:14;;;;;;;0.38;0.28;;;20.20;45.30;;;;;;5116183;28;20379;-81
2022/04/18 10:16:40;;;;;;;0.00;0.00;;;20.10;44.30;;;;;;5099181;28;20047;-81
2022/04/18 10:19:20;;;;;;;0.15;0.15;;;20.30;45.00;;;;;;5116262;28;20039;-81
2022/04/18 10:21:52;;;;;;;0.52;0.52;;;20.20;43.70;;;;;;5099040;28;20052;-81
2022/04/18 10:24:47;;;;;;;0.40;0.20;;;20.40;42.40;;;;;;5116536;28;20455;-81
2022/04/18 10:28:01;;;;;;;0.00;0.00;;;20.70;45.70;;;;;;5098683;28;20044;-81
2022/04/18 10:30:27;;;;;;;0.20;0.20;;;21.10;44.40;;;;;;5057410;28;20091;-81
2022/04/18 10:32:54;;;;;;;0.30;0.20;;;20.90;41.20;;;;;;5057399;28;20098;-81
2022/04/18 10:35:22;;;;;;;0.00;0.00;;;20.70;44.10;;;;;;5057204;28;20045;-81
2022/04/18 10:37:54;;;;;;;0.08;0.08;;;20.90;43.20;;;;;;5039751;28;20049;-81
2022/04/18 10:40:20;;;;;;;0.00;0.00;;;21.00;45.50;;;;;;5057256;28;20159;-81
2022/04/18 10:42:46;;;;;;;0.20;0.20;;;21.10;42.60;;;;;;5057718;28;20040;-81
2022/04/18 10:45:19;;;;;;;0.10;0.10;;;21.30;41.50;;;;;;5056897;28;20047;-81
2022/04/18 10:48:00;;;;;;;0.00;0.00;;;21.30;41.30;;;;;;5040702;28;20052;-81
2022/04/18 10:50:43;;;;;;;0.10;0.00;;;21.50;41.80;;;;;;5057211;28;20523;-81
2022/04/18 10:53:08;;;;;;;0.00;0.00;;;21.70;40.20;;;;;;5040343;28;20056;-81
2022/04/18 10:55:39;;;;;;;0.10;0.10;;;21.40;40.30;;;;;;5056445;28;20055;-81
2022/04/18 10:58:16;;;;;;;0.00;0.00;;;21.30;40.20;;;;;;5057183;28;20075;-81
2022/04/18 11:00:52;;;;;;;0.35;0.20;;;21.40;40.10;;;;;;5040403;28;20057;-81
2022/04/18 11:03:43;;;;;;;0.20;0.20;;;21.40;42.10;;;;;;5040729;28;20221;-81
2022/04/18 11:06:18;;;;;;;0.00;0.00;;;21.40;40.80;;;;;;5070747;28;20050;-81
2022/04/18 11:09:01;;;;;;;0.00;0.00;;;21.40;40.80;;;;;;5115108;28;20078;-81
2022/04/18 11:12:06;;;;;;;0.10;0.10;;;21.60;42.80;;;;;;5098222;28;20066;-81
2022/04/18 11:14:38;;;;;;;0.20;0.20;;;21.40;39.50;;;;;;5114861;28;20039;-81
2022/04/18 11:17:06;;;;;;;1.10;0.60;;;21.30;38.30;;;;;;5115092;28;20048;-81
2022/04/18 11:19:36;;;;;;;0.00;0.00;;;21.30;38.40;;;;;;5114677;28;20051;-81
2022/04/18 11:22:14;;;;;;;0.05;0.03;;;21.40;41.20;;;;;;5114840;28;20083;-81
2022/04/18 11:24:49;;;;;;;0.00;0.00;;;21.50;41.50;;;;;;5114812;28;20073;-81
2022/04/18 11:27:17;;;;;;;0.10;0.10;;;21.70;40.00;;;;;;5114509;28;20527;-81
2022/04/18 11:29:55;;;;;;;0.00;0.00;;;21.80;40.80;;;;;;5097809;28;20113;-81
2022/04/18 11:32:23;;;;;;;0.13;0.10;;;21.90;39.50;;;;;;5097318;28;20096;-81
2022/04/18 11:34:54;;;;;;;0.28;0.20;;;21.70;39.50;;;;;;5114724;28;20050;-81
2022/04/18 11:37:27;;;;;;;0.00;0.00;;;21.80;41.80;;;;;;5115125;28;20189;-81
2022/04/18 11:39:55;;;;;;;0.00;0.00;;;21.90;40.20;;;;;;5097518;28;20482;-82
2022/04/18 11:42:23;;;;;;;0.45;0.10;;;21.60;38.70;;;;;;5097426;28;20054;-81
2022/04/18 11:44:50;;;;;;;0.30;0.30;;;21.60;39.60;;;;;;5114003;28;20050;-81
2022/04/18 11:47:35;;;;;;;0.00;0.00;;;21.60;38.30;;;;;;5113797;28;20051;-81
2022/04/18 11:50:02;;;;;;;;;;;21.70;40.00;;;;;;5114907;28;20047;-81
2022/04/18 11:52:29;;;;;;;0.10;0.10;;;21.80;40.40;;;;;;5114075;28;19919;-81
2022/04/18 11:54:59;;;;;;;0.20;0.20;;;21.80;39.60;;;;;;5114148;28;20048;-81
2022/04/18 11:57:25;;;;;;;0.20;0.20;;;21.80;39.80;;;;;;5113831;28;20047;-81
2022/04/18 11:59:51;;;;;;;0.15;0.00;;;21.80;39.10;;;;;;5114081;28;20054;-81
2022/04/18 12:07:51;;;;;;;0.32;0.22;;;22.10;42.70;;;;;;5113301;28;20043;-81
2022/04/18 12:10:26;;;;;;;0.28;0.10;;;22.20;39.50;;;;;;5113903;28;20043;-81
2022/04/18 12:12:53;;;;;;;0.20;0.05;;;22.40;41.60;;;;;;5113831;28;20043;-81
2022/04/18 12:15:27;;;;;;;0.00;0.00;;;22.40;39.00;;;;;;5113744;28;20522;-81
2022/04/18 12:17:55;;;;;;;0.50;0.13;;;22.30;39.00;;;;;;5113832;28;20043;-81
2022/04/18 12:20:28;;;;;;;0.00;0.00;;;22.50;39.80;;;;;;5113610;28;20100;-81
2022/04/18 12:23:00;;;;;;;4.30;0.73;;;22.50;38.50;;;;;;5113641;28;20044;-82
2022/04/18 12:25:31;;;;;;;0.15;0.15;;;22.50;38.40;;;;;;5113544;28;20053;-82
2022/04/18 12:27:59;;;;;;;0.35;0.22;;;22.40;39.20;;;;;;5096752;28;20151;-82
2022/04/18 12:30:29;;;;;;;0.25;0.25;;;22.30;41.00;;;;;;5113548;28;20055;-82
2022/04/18 12:32:55;;;;;;;0.75;0.20;;;22.50;39.40;;;;;;5112954;28;20126;-82
2022/04/18 12:35:41;;;;;;;0.28;0.08;;;22.00;38.10;;;;;;5096700;28;20085;-81
2022/04/18 12:38:09;;;;;;;0.25;0.10;;;22.20;39.90;;;;;;5097167;28;20063;-82
2022/04/18 12:40:40;;;;;;;0.10;0.03;;;22.20;39.70;;;;;;5113402;28;20040;-82
2022/04/18 12:43:10;;;;;;;0.10;0.10;;;22.20;40.40;;;;;;5113044;28;20035;-81
2022/04/18 12:46:08;;;;;;;0.10;0.10;;;22.30;39.30;;;;;;5112380;28;20054;-82
2022/04/18 12:48:35;;;;;;;0.25;0.25;;;22.50;40.20;;;;;;5096273;28;20051;-82
2022/04/18 12:51:03;;;;;;;0.82;0.82;;;22.70;39.80;;;;;;5113420;28;20399;-82
2022/04/18 12:53:55;;;;;;;0.00;0.00;;;22.90;40.50;;;;;;5096432;28;20138;-81
2022/04/18 12:56:23;;;;;;;0.20;0.15;;;22.90;39.30;;;;;;5096672;28;20130;-82
2022/04/18 12:58:55;;;;;;;0.00;0.00;;;22.90;38.40;;;;;;5113076;28;20051;-82
2022/04/18 13:01:26;;;;;;;0.70;0.25;;;22.90;39.00;;;;;;5095868;28;20039;-82
2022/04/18 13:03:52;;;;;;;0.00;0.00;;;22.90;38.30;;;;;;5096002;28;20461;-82
2022/04/18 13:06:23;;;;;;;0.00;0.00;;;22.90;38.40;;;;;;5112816;28;20036;-82
2022/04/18 13:08:48;;;;;;;0.40;0.38;;;22.70;38.80;;;;;;5113103;28;20044;-81
2022/04/18 13:11:16;;;;;;;0.00;0.00;;;22.80;38.70;;;;;;5113115;28;20109;-82
2022/04/18 13:13:42;;;;;;;0.30;0.20;;;22.70;37.90;;;;;;5096217;28;20052;-82
2022/04/18 13:16:34;;;;;;;0.10;0.10;;;22.30;37.70;;;;;;5096002;28;20071;-82
2022/04/18 13:19:07;;;;;;;1.17;0.63;;;22.40;39.10;;;;;;5095237;28;20058;-82
2022/04/18 13:21:33;;;;;;;0.20;0.10;;;22.50;38.90;;;;;;5117317;28;20044;-82